Time;durP1;ratioP1;P1;durP2;ratioP2;P2;SDS_P1;SDS_P2;PMS_P1;PMS_P2;Temp;Humidity;BMP_temperature;BMP_pressure;BME280_temperature;BME280_humidity;BME280_pressure;Samples;Min_cycle;Max_cycle;Signal;HPM_P1;HPM_P2
2021/01/09 05:26:13;;;;;;;50.22;23.55;;;;;;;2.10;68.63;99978.94;5127254;27;20149;-96
2021/01/09 15:21:46;;;;;;;27.73;15.60;;;;;;;4.50;60.49;100141.72;5085096;27;34173;-94
2021/01/09 15:44:01;;;;;;;29.23;17.45;;;;;;;4.54;60.48;100161.03;5049308;28;34905;-93
2021/01/09 15:48:09;;;;;;;35.70;20.40;;;;;;;4.41;60.95;100163.97;4985151;28;35242;-92
2021/01/09 16:07:09;;;;;;;;;;;;;;;;;;;;;
2021/01/09 16:45:35;;;;;;;;;;;;;;;;;;;;;
2021/01/09 19:20:12;;;;;;;31.00;17.37;;;;;;;0.40;65.99;100242.28;5224249;27;34320;-92
2021/01/09 19:23:58;;;;;;;30.17;16.40;;;;;;;0.77;64.51;100234.28;5254339;27;33681;-91
2021/01/09 19:54:07;;;;;;;35.17;17.67;;;;;;;0.44;65.32;100270.34;5152818;27;20816;-93
2021/01/09 19:59:15;;;;;;;;;;;;;;;;;;;;;
2021/01/09 20:03:23;;;;;;;;;;;;;;;;;;;;;
2021/01/09 20:45:57;;;;;;;;;;;;;;;;;;;;;
2021/01/09 20:49:07;;;;;;;39.50;21.05;;;;;;;0.20;63.95;100293.38;5036747;28;35460;-94
2021/01/09 20:52:43;;;;;;;34.72;19.48;;;;;;;-0.16;65.36;100287.00;5030944;28;33536;-95
2021/01/09 20:57:02;;;;;;;40.08;19.02;;;;;;;-0.38;65.55;100299.06;4936036;29;32686;-96
2021/01/09 21:33:37;;;;;;;;;;;;;;;;;;;;;
2021/01/09 21:45:14;;;;;;;36.20;19.92;;;;;;;-1.02;64.87;100294.41;5358836;26;34357;-94
2021/01/09 21:49:02;;;;;;;43.53;22.33;;;;;;;-1.14;64.88;100292.56;5337249;26;34491;-94
2021/01/09 21:52:57;;;;;;;40.15;19.95;;;;;;;-0.94;63.95;100296.59;5244968;27;34614;-94
2021/01/09 21:56:35;;;;;;;45.65;25.40;;;;;;;-0.75;63.65;100285.59;5105212;28;33209;-94
2021/01/09 22:00:54;;;;;;;47.97;22.77;;;;;;;-0.93;64.45;100292.97;5025185;28;35496;-90
2021/01/09 22:04:38;;;;;;;41.53;22.52;;;;;;;-1.15;65.09;100297.03;5070873;28;34345;-90
2021/01/09 22:08:18;;;;;;;;;;;;;;;;;;;;;
2021/01/09 22:15:52;;;;;;;44.50;22.40;;;;;;;-1.60;66.32;100301.66;5124177;27;36608;-94
2021/01/09 22:19:20;;;;;;;37.65;21.65;;;;;;;-1.66;67.04;100304.66;5017355;28;20137;-94
2021/01/09 22:23:25;;;;;;;41.75;22.75;;;;;;;-1.66;65.47;100292.28;4950872;28;37145;-91
2021/01/09 22:27:01;;;;;;;44.42;22.87;;;;;;;-2.26;69.38;100300.34;4973462;28;34969;-90
2021/01/09 22:31:16;;;;;;;43.22;23.02;;;;;;;-1.69;67.77;100289.81;5002108;28;34384;-90
2021/01/09 22:35:40;;;;;;;42.33;22.70;;;;;;;-1.61;67.80;100287.50;5046065;28;34208;-95
2021/01/09 22:40:27;;;;;;;43.25;24.98;;;;;;;-1.43;66.41;100290.81;5060292;28;34147;-96
2021/01/09 22:43:45;;;;;;;46.80;23.35;;;;;;;-1.32;65.89;100295.47;4958204;28;34030;-93
2021/01/09 22:48:28;;;;;;;46.75;22.30;;;;;;;-1.28;65.25;100288.97;4992088;28;33929;-95
2021/01/09 22:52:33;;;;;;;;;;;;;;;;;;;;;
2021/01/09 22:56:30;;;;;;;41.95;21.83;;;;;;;-1.08;64.77;100295.69;5167560;27;32963;-94
2021/01/09 23:00:31;;;;;;;46.40;23.98;;;;;;;-1.17;65.24;100295.41;5175071;27;34876;-90
2021/01/09 23:04:56;;;;;;;;;;;;;;;;;;;;;
2021/01/09 23:09:43;;;;;;;44.50;21.90;;;;;;;-1.61;65.88;100297.28;5131149;27;35286;-94
2021/01/09 23:13:30;;;;;;;40.97;20.98;;;;;;;-2.22;68.38;100292.13;5165008;27;20142;-94
2021/01/09 23:17:15;;;;;;;43.30;23.62;;;;;;;-1.47;66.35;100288.44;5167652;27;20118;-91
2021/01/09 23:21:53;;;;;;;37.08;19.85;;;;;;;-1.62;66.19;100296.44;5071178;28;32903;-91
2021/01/09 23:26:09;;;;;;;42.88;19.85;;;;;;;-1.40;65.47;100291.59;5184707;26;33708;-91
